createdAt,value
2022-11-07T00:00:16.969Z,1.48
2022-11-07T00:02:46.447Z,2.45
2022-11-07T00:05:16.388Z,2.47
2022-11-07T00:07:45.749Z,1.90
2022-11-07T00:10:15.216Z,1.50
2022-11-07T00:12:44.666Z,1.75
2022-11-07T00:15:15.488Z,2.08
2022-11-07T00:17:44.873Z,1.67
2022-11-07T00:20:14.342Z,1.95
2022-11-07T00:22:43.755Z,1.40
2022-11-07T00:25:13.185Z,1.15
2022-11-07T00:27:42.689Z,1.65
2022-11-07T00:30:15.510Z,1.35
2022-11-07T00:32:45.000Z,1.60
2022-11-07T00:35:14.572Z,1.42
2022-11-07T00:37:43.980Z,2.13
2022-11-07T00:40:14.076Z,1.83
2022-11-07T00:42:43.567Z,1.33
2022-11-07T00:45:13.352Z,2.63
2022-11-07T00:47:44.103Z,1.77
2022-11-07T00:50:13.524Z,1.42
2022-11-07T00:52:42.985Z,2.88
2022-11-07T00:55:13.013Z,2.95
2022-11-07T00:57:42.410Z,1.77
2022-11-07T01:00:14.799Z,1.75
2022-11-07T01:03:05.527Z,1.65
2022-11-07T01:05:33.942Z,1.40
2022-11-07T01:08:03.473Z,1.35
2022-11-07T01:10:33.416Z,1.75
2022-11-07T01:13:02.846Z,1.48
2022-11-07T01:15:32.223Z,1.67
2022-11-07T01:18:02.991Z,2.28
2022-11-07T01:20:32.405Z,2.33
2022-11-07T01:23:01.770Z,2.15
2022-11-07T01:25:31.303Z,2.00
2022-11-07T01:28:00.714Z,2.38
2022-11-07T01:30:30.113Z,1.55
2022-11-07T01:32:59.770Z,3.67
2022-11-07T01:35:30.537Z,2.10
2022-11-07T01:38:00.447Z,1.58
2022-11-07T01:40:30.645Z,1.60
2022-11-07T01:43:00.376Z,1.52
2022-11-07T01:45:32.048Z,1.30
2022-11-07T01:48:03.339Z,2.10
2022-11-07T01:50:34.125Z,1.88
2022-11-07T01:53:03.799Z,1.45
2022-11-07T01:55:36.651Z,2.92
2022-11-07T01:58:10.092Z,3.83
2022-11-07T02:00:40.115Z,2.47
2022-11-07T02:03:14.039Z,1.40
2022-11-07T02:05:50.374Z,2.90
2022-11-07T02:08:20.909Z,2.10
2022-11-07T02:10:51.004Z,1.73
2022-11-07T02:13:27.659Z,3.60
2022-11-07T02:16:01.072Z,1.88
2022-11-07T02:18:31.919Z,2.17
2022-11-07T02:21:13.589Z,1.70
2022-11-07T02:23:52.876Z,2.05
2022-11-07T02:26:25.651Z,2.38
2022-11-07T02:28:58.065Z,2.58
2022-11-07T02:31:27.555Z,1.90
2022-11-07T02:33:57.063Z,2.00
2022-11-07T02:36:27.300Z,2.17
2022-11-07T02:39:00.836Z,2.67
2022-11-07T02:41:35.668Z,2.00
2022-11-07T02:44:11.266Z,1.70
2022-11-07T02:46:41.695Z,2.55
2022-11-07T02:49:11.100Z,1.45
2022-11-07T02:51:40.627Z,4.25
2022-11-07T02:54:10.105Z,2.00
2022-11-07T02:56:40.892Z,1.20
2022-11-07T02:59:10.453Z,3.28
2022-11-07T03:01:40.110Z,2.67
2022-11-07T03:04:09.931Z,2.20
2022-11-07T03:06:39.353Z,3.05
2022-11-07T03:09:08.737Z,3.10
2022-11-07T03:11:38.116Z,2.45
2022-11-07T03:14:08.836Z,2.25
2022-11-07T03:16:38.326Z,2.72
2022-11-07T03:19:07.703Z,1.67
2022-11-07T03:21:37.098Z,1.50
2022-11-07T03:24:07.517Z,2.83
2022-11-07T03:26:36.911Z,2.92
2022-11-07T03:29:06.564Z,1.77
2022-11-07T03:31:37.659Z,2.30
2022-11-07T03:34:07.023Z,1.67
2022-11-07T03:36:36.482Z,4.28
2022-11-07T03:39:05.952Z,2.03
2022-11-07T03:41:35.363Z,2.00
2022-11-07T03:44:04.995Z,2.83
2022-11-07T03:46:35.766Z,2.38
2022-11-07T03:49:05.407Z,1.60
2022-11-07T03:51:34.806Z,1.98
2022-11-07T03:54:04.540Z,1.95
2022-11-07T03:56:33.955Z,1.95
2022-11-07T03:59:03.490Z,1.90
2022-11-07T04:01:33.316Z,2.55
2022-11-07T04:04:04.248Z,2.65
2022-11-07T04:06:33.663Z,1.55
2022-11-07T04:09:03.056Z,1.83
2022-11-07T04:11:49.843Z,1.80
2022-11-07T04:14:36.630Z,1.70
2022-11-07T04:17:20.958Z,2.25
2022-11-07T04:19:55.938Z,2.92
2022-11-07T04:22:27.136Z,1.95
2022-11-07T04:24:56.515Z,1.58
2022-11-07T04:27:42.928Z,1.85
2022-11-07T04:30:23.729Z,2.38
2022-11-07T04:32:55.824Z,1.40
2022-11-07T04:35:30.216Z,1.45
2022-11-07T04:38:00.570Z,1.13
2022-11-07T04:40:31.421Z,1.48
2022-11-07T04:43:01.011Z,2.25
2022-11-07T04:45:30.413Z,1.27
2022-11-07T04:47:59.876Z,2.53
2022-11-07T04:50:30.703Z,2.50
2022-11-07T04:53:00.063Z,1.40
2022-11-07T04:55:31.263Z,2.03
2022-11-07T04:58:00.667Z,3.10
2022-11-07T05:00:30.069Z,2.13
2022-11-07T05:02:59.628Z,2.08
2022-11-07T05:05:30.672Z,2.00
2022-11-07T05:08:00.078Z,1.63
2022-11-07T05:10:31.030Z,2.55
2022-11-07T05:13:00.437Z,1.38
2022-11-07T05:15:29.836Z,2.13
2022-11-07T05:17:59.248Z,2.13
2022-11-07T05:20:33.826Z,2.17
2022-11-07T05:23:17.759Z,2.88
2022-11-07T05:25:50.522Z,1.88
2022-11-07T05:28:31.190Z,1.50
2022-11-07T05:31:07.000Z,3.45
2022-11-07T05:33:36.947Z,2.03
2022-11-07T05:36:21.149Z,3.00
2022-11-07T05:38:53.417Z,2.35
2022-11-07T05:41:23.596Z,4.60
2022-11-07T05:43:53.003Z,3.05
2022-11-07T05:46:22.397Z,3.75
2022-11-07T05:48:56.575Z,2.75
2022-11-07T05:51:30.417Z,3.35
2022-11-07T05:53:59.807Z,2.35
2022-11-07T05:56:29.376Z,2.67
2022-11-07T05:58:59.078Z,2.03
2022-11-07T06:01:28.570Z,3.70
2022-11-07T06:03:58.459Z,4.60
2022-11-07T06:06:29.353Z,5.43
2022-11-07T06:08:59.100Z,3.67
2022-11-07T06:11:28.840Z,2.70
2022-11-07T06:13:58.300Z,3.20
2022-11-07T06:16:29.020Z,3.15
2022-11-07T06:18:58.560Z,4.43
2022-11-07T06:21:29.606Z,5.75
2022-11-07T06:24:00.046Z,3.47
2022-11-07T06:26:29.458Z,3.13
2022-11-07T06:28:58.845Z,2.88
2022-11-07T06:31:28.251Z,2.38
2022-11-07T06:33:57.799Z,1.50
2022-11-07T06:36:27.283Z,2.85
2022-11-07T06:38:58.603Z,1.77
2022-11-07T06:41:28.224Z,1.27
2022-11-07T06:43:57.790Z,2.15
2022-11-07T06:46:28.145Z,2.67
2022-11-07T06:48:57.817Z,4.03
2022-11-07T06:51:29.388Z,2.13
2022-11-07T06:54:00.213Z,3.00
2022-11-07T06:56:29.652Z,3.10
2022-11-07T06:58:59.006Z,2.10
2022-11-07T07:01:28.609Z,2.05
2022-11-07T07:03:59.986Z,2.20
2022-11-07T07:06:56.045Z,1.50
2022-11-07T07:09:28.242Z,2.35
2022-11-07T07:11:57.889Z,1.80
2022-11-07T07:14:27.430Z,2.33
2022-11-07T07:16:58.797Z,2.97
2022-11-07T07:19:30.796Z,1.77
2022-11-07T07:22:00.303Z,2.90
2022-11-07T07:24:31.156Z,3.50
2022-11-07T07:27:00.609Z,2.30
2022-11-07T07:29:29.986Z,2.72
2022-11-07T07:31:59.579Z,1.67
2022-11-07T07:34:29.240Z,1.20
2022-11-07T07:36:58.665Z,2.70
2022-11-07T07:39:28.144Z,3.92
2022-11-07T07:41:58.989Z,1.92
2022-11-07T07:44:28.502Z,2.38
2022-11-07T07:46:57.971Z,1.55
2022-11-07T07:49:27.440Z,1.55
2022-11-07T07:51:57.559Z,2.90
2022-11-07T07:54:27.049Z,3.85
2022-11-07T07:56:57.823Z,1.20
2022-11-07T07:59:27.342Z,2.17
2022-11-07T08:01:57.539Z,3.17
2022-11-07T08:04:27.602Z,1.75
2022-11-07T08:06:57.193Z,1.60
2022-11-07T08:09:26.572Z,3.03
2022-11-07T08:11:55.961Z,1.50
2022-11-07T08:14:26.686Z,1.25
2022-11-07T08:16:56.161Z,2.42
2022-11-07T08:19:26.329Z,2.47
2022-11-07T08:21:55.743Z,1.92
2022-11-07T08:24:25.239Z,1.30
2022-11-07T08:26:54.772Z,2.70
2022-11-07T08:29:24.164Z,2.38
2022-11-07T08:31:54.957Z,1.90
2022-11-07T08:34:24.720Z,1.40
2022-11-07T08:36:54.260Z,1.95
2022-11-07T08:39:23.729Z,1.60
2022-11-07T08:41:55.077Z,2.83
2022-11-07T08:44:24.515Z,1.88
2022-11-07T08:46:55.264Z,2.50
2022-11-07T08:49:24.926Z,1.55
2022-11-07T08:51:54.375Z,2.15
2022-11-07T08:54:25.716Z,1.92
2022-11-07T08:56:55.309Z,4.65
2022-11-07T08:59:24.719Z,1.63
2022-11-07T09:02:36.960Z,1.95
2022-11-07T09:04:45.247Z,2.58
2022-11-07T09:07:14.810Z,2.70
2022-11-07T09:09:44.273Z,2.03
2022-11-07T09:12:13.687Z,2.53
2022-11-07T09:14:43.067Z,1.55
2022-11-07T09:17:13.879Z,2.50
2022-11-07T09:19:43.277Z,1.25
2022-11-07T09:22:12.724Z,2.53
2022-11-07T09:24:42.140Z,2.88
2022-11-07T09:27:11.664Z,2.55
2022-11-07T09:29:41.219Z,2.30
2022-11-07T09:32:38.238Z,3.08
2022-11-07T09:35:04.680Z,2.92
2022-11-07T09:37:34.608Z,2.10
2022-11-07T09:40:04.639Z,1.75
2022-11-07T09:42:47.705Z,3.58
2022-11-07T09:45:17.886Z,1.85
2022-11-07T09:47:56.021Z,2.13
2022-11-07T09:50:35.253Z,2.05
2022-11-07T09:53:13.614Z,1.92
2022-11-07T09:55:52.848Z,1.33
2022-11-07T09:58:32.884Z,4.53
2022-11-07T10:01:07.707Z,1.58
2022-11-07T10:03:43.165Z,2.75
2022-11-07T10:06:28.996Z,1.55
2022-11-07T10:09:13.143Z,2.33
2022-11-07T10:11:51.453Z,2.63
2022-11-07T10:14:35.755Z,3.67
2022-11-07T10:17:21.738Z,1.45
2022-11-07T10:20:14.732Z,2.08
2022-11-07T10:23:09.563Z,2.78
2022-11-07T10:25:49.486Z,2.00
2022-11-07T10:28:22.106Z,2.45
2022-11-07T10:30:55.516Z,1.70
2022-11-07T10:33:41.118Z,3.70
2022-11-07T10:36:23.748Z,2.85
2022-11-07T10:38:55.267Z,3.00
2022-11-07T10:41:28.186Z,1.88
2022-11-07T10:44:03.753Z,2.72
2022-11-07T10:46:41.289Z,1.35
2022-11-07T10:49:23.009Z,3.05
2022-11-07T10:51:53.656Z,2.90
2022-11-07T10:54:31.304Z,2.53
2022-11-07T10:57:06.965Z,3.17
2022-11-07T10:59:41.492Z,1.88
2022-11-07T11:02:23.085Z,2.70
2022-11-07T11:04:56.158Z,2.97
2022-11-07T11:10:20.123Z,2.28
2022-11-07T11:12:50.906Z,2.08
2022-11-07T11:15:23.823Z,1.90
2022-11-07T11:18:03.127Z,2.17
2022-11-07T11:20:39.816Z,2.17
2022-11-07T11:23:23.673Z,3.22
2022-11-07T11:26:03.140Z,2.47
2022-11-07T11:28:40.965Z,4.40
2022-11-07T11:31:30.928Z,2.28
2022-11-07T11:34:11.349Z,2.22
2022-11-07T11:36:47.042Z,2.75
2022-11-07T11:39:27.143Z,2.03
2022-11-07T11:42:00.322Z,2.35
2022-11-07T11:44:39.474Z,1.90
2022-11-07T11:47:17.808Z,1.67
2022-11-07T11:49:52.235Z,3.20
2022-11-07T11:52:25.894Z,2.00
2022-11-07T11:54:57.923Z,1.25
2022-11-07T11:57:40.169Z,2.97
2022-11-07T12:00:15.685Z,3.65
2022-11-07T12:03:14.550Z,3.78
2022-11-07T12:06:13.142Z,5.15
2022-11-07T12:09:38.363Z,1.75
2022-11-07T12:12:30.354Z,3.67
2022-11-07T12:15:30.612Z,2.38
2022-11-07T12:18:12.016Z,3.22
2022-11-07T12:20:59.056Z,3.88
2022-11-07T12:23:49.884Z,4.13
2022-11-07T12:26:29.529Z,1.67
2022-11-07T12:29:16.608Z,3.78
2022-11-07T12:32:08.509Z,2.58
2022-11-07T12:35:02.737Z,1.33
2022-11-07T12:38:04.310Z,3.05
2022-11-07T12:40:49.337Z,3.65
2022-11-07T12:43:45.923Z,2.10
2022-11-07T12:46:29.044Z,2.17
2022-11-07T12:49:40.720Z,1.67
2022-11-07T12:52:30.396Z,1.85
2022-11-07T12:55:04.144Z,2.97
2022-11-07T12:57:57.348Z,1.75
2022-11-07T13:00:30.443Z,1.85
2022-11-07T13:03:46.867Z,1.98
2022-11-07T13:06:26.918Z,3.95
2022-11-07T13:09:14.427Z,1.13
2022-11-07T13:11:54.007Z,2.95
2022-11-07T13:14:33.018Z,3.50
2022-11-07T13:17:48.021Z,4.55
2022-11-07T13:23:47.559Z,2.47
2022-11-07T13:26:46.512Z,4.57
2022-11-07T13:29:34.165Z,1.88
2022-11-07T13:32:10.971Z,3.63
2022-11-07T13:34:51.225Z,2.15
2022-11-07T13:37:32.126Z,4.05
2022-11-07T13:40:08.292Z,2.33
2022-11-07T13:42:37.984Z,2.60
2022-11-07T13:45:27.931Z,5.07
2022-11-07T13:48:05.930Z,3.17
2022-11-07T13:50:50.887Z,2.58
2022-11-07T13:53:32.268Z,2.38
2022-11-07T13:56:10.764Z,4.22
2022-11-07T13:58:42.915Z,2.70
2022-11-07T14:01:14.671Z,5.38
2022-11-07T14:03:44.134Z,1.88
2022-11-07T14:06:15.581Z,3.90
2022-11-07T14:08:49.397Z,2.42
2022-11-07T14:11:22.771Z,2.47
2022-11-07T14:13:55.268Z,2.88
2022-11-07T14:16:30.573Z,2.10
2022-11-07T14:19:04.268Z,3.45
2022-11-07T14:21:37.229Z,2.92
2022-11-07T14:27:05.151Z,3.08
2022-11-07T14:29:34.847Z,6.05
2022-11-07T14:32:08.300Z,2.47
2022-11-07T14:34:45.880Z,3.45
2022-11-07T14:37:21.105Z,2.08
2022-11-07T14:39:53.279Z,1.48
2022-11-07T14:42:25.493Z,3.90
2022-11-07T14:44:57.764Z,4.70
2022-11-07T14:47:32.381Z,3.22
2022-11-07T14:50:06.396Z,2.13
2022-11-07T14:52:42.416Z,2.55
2022-11-07T14:55:21.585Z,2.05
2022-11-07T14:57:52.036Z,2.72
2022-11-07T15:00:24.017Z,1.40
2022-11-07T15:02:59.216Z,1.50
2022-11-07T15:05:32.932Z,5.07
2022-11-07T15:08:02.501Z,1.65
2022-11-07T15:10:39.551Z,2.20
2022-11-07T15:13:26.217Z,2.75
2022-11-07T15:16:05.078Z,2.47
2022-11-07T15:18:40.526Z,2.25
2022-11-07T15:21:26.224Z,5.43
2022-11-07T15:23:55.697Z,6.20
2022-11-07T15:26:33.021Z,3.92
2022-11-07T15:29:20.875Z,4.15
2022-11-07T15:31:50.917Z,3.80
2022-11-07T15:34:45.204Z,2.63
2022-11-07T15:37:13.313Z,2.78
2022-11-07T15:39:42.822Z,5.30
2022-11-07T15:42:13.672Z,6.22
2022-11-07T15:44:43.772Z,8.30
2022-11-07T15:47:20.295Z,2.63
2022-11-07T15:49:50.354Z,3.90
2022-11-07T15:52:19.844Z,4.55
2022-11-07T15:54:49.268Z,3.40
2022-11-07T15:57:20.849Z,2.15
2022-11-07T15:59:50.520Z,2.72
2022-11-07T16:02:20.022Z,2.28
2022-11-07T16:04:49.564Z,2.30
2022-11-07T16:07:21.048Z,3.42
2022-11-07T16:09:50.568Z,3.08
2022-11-07T16:12:21.408Z,2.15
2022-11-07T16:14:51.071Z,3.08
2022-11-07T16:17:21.196Z,1.92
2022-11-07T16:19:50.595Z,5.43
2022-11-07T16:22:20.023Z,3.78
2022-11-07T16:24:49.446Z,3.72
2022-11-07T16:27:20.706Z,4.63
2022-11-07T16:29:50.191Z,4.03
2022-11-07T16:32:19.675Z,3.13
2022-11-07T16:34:49.166Z,5.68
2022-11-07T16:37:18.873Z,5.07
2022-11-07T16:39:48.260Z,4.65
2022-11-07T16:42:21.548Z,5.25
2022-11-07T16:44:51.052Z,3.80
2022-11-07T16:47:20.566Z,6.35
2022-11-07T16:49:53.524Z,3.17
2022-11-07T16:52:28.120Z,5.53
2022-11-07T16:54:57.520Z,3.57
2022-11-07T16:57:28.411Z,3.75
2022-11-07T16:59:57.792Z,7.40
2022-11-07T17:02:28.276Z,5.97
2022-11-07T17:04:57.722Z,5.60
2022-11-07T17:07:27.290Z,8.85
2022-11-07T17:09:56.687Z,7.10
2022-11-07T17:12:27.896Z,6.47
2022-11-07T17:14:57.297Z,8.77
2022-11-07T17:17:26.778Z,8.30
2022-11-07T17:19:56.169Z,6.78
2022-11-07T17:22:25.550Z,8.65
2022-11-07T17:24:54.968Z,9.93
2022-11-07T17:27:27.204Z,5.97
2022-11-07T17:29:57.004Z,4.23
2022-11-07T17:32:26.452Z,5.53
2022-11-07T17:35:18.232Z,7.43
2022-11-07T17:37:45.240Z,7.43
2022-11-07T17:40:22.404Z,9.15
2022-11-07T17:42:53.155Z,8.65
2022-11-07T17:45:22.614Z,5.88
2022-11-07T17:47:52.183Z,8.75
2022-11-07T17:50:23.784Z,7.13
2022-11-07T17:52:53.565Z,7.53
2022-11-07T17:55:24.553Z,6.78
2022-11-07T17:57:55.583Z,9.40
2022-11-07T18:00:27.931Z,9.93
2022-11-07T18:02:57.409Z,6.97
2022-11-07T18:05:32.842Z,7.93
2022-11-07T18:08:03.167Z,8.02
2022-11-07T18:10:32.873Z,8.93
2022-11-07T18:13:03.631Z,7.70
2022-11-07T18:15:33.045Z,10.38
2022-11-07T18:18:06.777Z,7.70
2022-11-07T18:20:39.135Z,8.75
2022-11-07T18:23:08.577Z,8.25
2022-11-07T18:25:38.579Z,13.27
2022-11-07T18:28:09.315Z,9.65
2022-11-07T18:30:38.682Z,11.82
2022-11-07T18:33:08.087Z,10.52
2022-11-07T18:35:37.503Z,10.25
2022-11-07T18:38:06.931Z,11.45
2022-11-07T18:40:36.411Z,12.23
2022-11-07T18:43:05.804Z,14.07
2022-11-07T18:45:36.576Z,19.60
2022-11-07T18:48:06.777Z,14.20
2022-11-07T18:50:39.867Z,12.90
2022-11-07T18:53:09.366Z,12.23
2022-11-07T18:55:38.736Z,11.57
2022-11-07T18:58:08.321Z,10.93
2022-11-07T19:00:39.319Z,11.48
2022-11-07T19:03:08.728Z,10.63
2022-11-07T19:05:41.182Z,11.65
2022-11-07T19:08:10.810Z,15.30
2022-11-07T19:10:40.360Z,13.48
2022-11-07T19:13:09.768Z,13.35
2022-11-07T19:15:41.345Z,10.43
2022-11-07T19:18:10.873Z,11.30
2022-11-07T19:20:40.714Z,11.43
2022-11-07T19:23:11.432Z,7.93
2022-11-07T19:25:41.607Z,8.82
2022-11-07T19:28:11.452Z,8.82
2022-11-07T19:30:43.018Z,11.05
2022-11-07T19:33:13.030Z,8.75
2022-11-07T19:35:43.373Z,9.07
2022-11-07T19:38:15.042Z,9.75
2022-11-07T19:40:50.457Z,11.85
2022-11-07T19:43:20.106Z,9.43
2022-11-07T19:45:50.986Z,9.27
2022-11-07T19:48:20.415Z,7.15
2022-11-07T19:50:49.820Z,8.18
2022-11-07T19:53:21.370Z,7.60
2022-11-07T19:55:50.843Z,9.43
2022-11-07T19:58:20.255Z,8.10
2022-11-07T20:00:51.093Z,7.10
2022-11-07T20:03:21.563Z,9.45
2022-11-07T20:05:51.808Z,7.88
2022-11-07T20:08:21.213Z,7.45
2022-11-07T20:10:51.671Z,8.02
2022-11-07T20:13:21.160Z,6.35
2022-11-07T20:15:51.909Z,9.48
2022-11-07T20:18:21.494Z,9.93
2022-11-07T20:20:51.184Z,9.13
2022-11-07T20:23:20.760Z,7.60
2022-11-07T20:25:50.234Z,8.88
2022-11-07T20:28:19.676Z,8.38
2022-11-07T20:30:49.154Z,8.25
2022-11-07T20:33:20.233Z,7.00
2022-11-07T20:36:00.718Z,7.63
2022-11-07T20:38:30.704Z,6.80
2022-11-07T20:41:00.705Z,7.28
2022-11-07T20:43:30.613Z,6.32
2022-11-07T20:46:05.615Z,6.25
2022-11-07T20:48:37.194Z,7.30
2022-11-07T20:51:11.110Z,7.55
2022-11-07T20:53:46.744Z,7.47
2022-11-07T20:56:19.510Z,6.65
2022-11-07T20:58:50.064Z,7.10
2022-11-07T21:01:27.416Z,7.32
2022-11-07T21:04:00.799Z,6.88
2022-11-07T21:06:30.463Z,5.97
2022-11-07T21:08:59.985Z,5.43
2022-11-07T21:11:31.107Z,5.70
2022-11-07T21:14:00.797Z,9.02
2022-11-07T21:16:34.409Z,7.03
2022-11-07T21:19:06.892Z,6.43
2022-11-07T21:21:36.252Z,6.23
2022-11-07T21:24:06.444Z,6.18
2022-11-07T21:26:39.917Z,4.68
2022-11-07T21:29:10.955Z,9.40
2022-11-07T21:31:42.052Z,8.80
2022-11-07T21:34:12.912Z,12.88
2022-11-07T21:36:42.596Z,6.68
2022-11-07T21:39:12.459Z,7.40
2022-11-07T21:41:41.815Z,9.45
2022-11-07T21:44:12.623Z,8.07
2022-11-07T21:46:42.048Z,7.05
2022-11-07T21:49:12.827Z,6.80
2022-11-07T21:51:42.456Z,7.80
2022-11-07T21:54:12.711Z,9.70
2022-11-07T21:56:42.108Z,7.07
2022-11-07T21:59:13.330Z,7.50
2022-11-07T22:01:43.467Z,6.63
2022-11-07T22:04:14.288Z,4.80
2022-11-07T22:06:45.760Z,8.88
2022-11-07T22:09:18.411Z,6.10
2022-11-07T22:11:47.967Z,7.20
2022-11-07T22:14:20.949Z,5.63
2022-11-07T22:16:56.098Z,6.03
2022-11-07T22:19:27.758Z,5.38
2022-11-07T22:21:57.125Z,4.68
2022-11-07T22:24:27.246Z,5.40
2022-11-07T22:26:57.213Z,7.25
2022-11-07T22:29:26.728Z,6.03
2022-11-07T22:31:56.142Z,5.18
2022-11-07T22:34:27.069Z,5.88
2022-11-07T22:36:56.471Z,8.07
2022-11-07T22:39:25.867Z,4.93
2022-11-07T22:41:55.217Z,5.95
2022-11-07T22:44:24.667Z,6.07
2022-11-07T22:46:56.754Z,6.18
2022-11-07T22:49:27.544Z,6.35
2022-11-07T22:51:56.959Z,7.10
2022-11-07T22:54:26.326Z,5.35
2022-11-07T22:56:55.707Z,7.47
2022-11-07T22:59:25.090Z,9.60
2022-11-07T23:01:54.675Z,7.43
2022-11-07T23:04:26.441Z,6.38
2022-11-07T23:07:00.801Z,7.13
2022-11-07T23:09:30.230Z,7.45
2022-11-07T23:12:00.449Z,7.20
2022-11-07T23:14:29.954Z,5.45
2022-11-07T23:16:59.341Z,8.32
2022-11-07T23:19:28.826Z,6.13
2022-11-07T23:21:59.306Z,6.82
2022-11-07T23:24:30.215Z,4.63
2022-11-07T23:26:59.692Z,7.53
2022-11-07T23:29:29.132Z,6.15
2022-11-07T23:31:58.492Z,7.13
2022-11-07T23:34:29.126Z,7.05
2022-11-07T23:36:58.692Z,11.68
2022-11-07T23:39:30.252Z,6.40
2022-11-07T23:41:59.640Z,9.40
2022-11-07T23:44:28.990Z,7.55
2022-11-07T23:47:15.977Z,5.72
2022-11-07T23:50:02.955Z,7.63
2022-11-07T23:52:32.319Z,5.82
2022-11-07T23:55:20.666Z,6.03
2022-11-07T23:58:07.576Z,7.15
